Larchwood, Iowa
Current Conditions -  °F | °C
As of 6:14 PM on Tuesday 25 Nov 2014 (Local Time) from KLYV Reporting Station
Overcast Overcast  
Wind Chill: 27°   Ceiling: 7500
Heat Index: 34°   Visibility: 10mi
Dew Point: 23°   Wind: 8mph
Humidity: 65%   Direction: 160°SSE
Pressure: 29.89"   Gusts: NA
Location:  43.45°N, 96.43°W
Report Text: KLYV 260014Z AUTO 16007KT 10SM BKN075 OVC100 01/M05 A2989 RMK AO2
Loading
Personal Weather Stations






























Interactive Weather Map New forecast layout! Learn more

10-Day Weather Forecast

Advertisements
Track Severe Weather on mobile